sensor_id;sensor_type;location;lat;lon;timestamp;pressure;altitude;pressure_sealevel;temperature;humidity
49178;BME280;35016;55.674;37.468;2023-08-17T00:00:36;99816.03;;;18.60;65.70
49178;BME280;35016;55.674;37.468;2023-08-17T00:03:04;99818.59;;;18.56;65.70
49178;BME280;35016;55.674;37.468;2023-08-17T00:05:31;99823.28;;;18.55;65.80
49178;BME280;35016;55.674;37.468;2023-08-17T00:08:00;99815.66;;;18.52;65.75
49178;BME280;35016;55.674;37.468;2023-08-17T00:10:30;99817.28;;;18.53;65.96
49178;BME280;35016;55.674;37.468;2023-08-17T00:12:57;99820.31;;;18.52;66.04
49178;BME280;35016;55.674;37.468;2023-08-17T00:15:24;99821.44;;;18.51;66.11
49178;BME280;35016;55.674;37.468;2023-08-17T00:17:51;99820.63;;;18.50;66.13
49178;BME280;35016;55.674;37.468;2023-08-17T00:20:18;99820.91;;;18.49;66.22
49178;BME280;35016;55.674;37.468;2023-08-17T00:22:45;99819.88;;;18.45;66.19
49178;BME280;35016;55.674;37.468;2023-08-17T00:25:12;99827.31;;;18.44;66.35
49178;BME280;35016;55.674;37.468;2023-08-17T00:27:39;99824.06;;;18.42;66.41
49178;BME280;35016;55.674;37.468;2023-08-17T00:30:07;99823.53;;;18.40;66.64
49178;BME280;35016;55.674;37.468;2023-08-17T00:32:35;99826.59;;;18.39;66.51
49178;BME280;35016;55.674;37.468;2023-08-17T00:35:03;99832.69;;;18.36;66.64
49178;BME280;35016;55.674;37.468;2023-08-17T00:37:30;99832.69;;;18.36;66.67
49178;BME280;35016;55.674;37.468;2023-08-17T00:39:57;99833.00;;;18.34;66.69
49178;BME280;35016;55.674;37.468;2023-08-17T00:42:24;99841.53;;;18.33;66.73
49178;BME280;35016;55.674;37.468;2023-08-17T00:44:51;99831.69;;;18.32;66.88
49178;BME280;35016;55.674;37.468;2023-08-17T00:47:18;99827.91;;;18.27;66.63
49178;BME280;35016;55.674;37.468;2023-08-17T00:49:45;99833.41;;;18.27;66.82
49178;BME280;35016;55.674;37.468;2023-08-17T00:52:12;99832.38;;;18.23;67.17
49178;BME280;35016;55.674;37.468;2023-08-17T00:54:41;99835.94;;;18.24;67.29
49178;BME280;35016;55.674;37.468;2023-08-17T00:57:08;99837.88;;;18.23;67.39
49178;BME280;35016;55.674;37.468;2023-08-17T00:59:36;99838.69;;;18.24;67.30
49178;BME280;35016;55.674;37.468;2023-08-17T01:02:04;99837.88;;;18.23;67.51
49178;BME280;35016;55.674;37.468;2023-08-17T01:04:31;99832.97;;;18.20;67.31
49178;BME280;35016;55.674;37.468;2023-08-17T01:06:59;99839.25;;;18.21;67.41
49178;BME280;35016;55.674;37.468;2023-08-17T01:09:26;99834.06;;;18.19;67.59
49178;BME280;35016;55.674;37.468;2023-08-17T01:12:05;99835.50;;;18.17;68.20
49178;BME280;35016;55.674;37.468;2023-08-17T01:15:05;99837.72;;;18.15;68.52
49178;BME280;35016;55.674;37.468;2023-08-17T01:17:48;99834.78;;;18.11;68.17
49178;BME280;35016;55.674;37.468;2023-08-17T01:20:19;99840.06;;;18.08;67.74
49178;BME280;35016;55.674;37.468;2023-08-17T01:22:49;99847.47;;;18.07;67.73
49178;BME280;35016;55.674;37.468;2023-08-17T01:25:17;99838.72;;;18.05;67.85
49178;BME280;35016;55.674;37.468;2023-08-17T01:27:45;99844.22;;;18.05;67.99
49178;BME280;35016;55.674;37.468;2023-08-17T01:30:15;99842.88;;;18.03;68.03
49178;BME280;35016;55.674;37.468;2023-08-17T01:35:51;99838.81;;;18.00;68.94
49178;BME280;35016;55.674;37.468;2023-08-17T01:38:21;99846.75;;;18.02;68.31
49178;BME280;35016;55.674;37.468;2023-08-17T01:40:50;99841.34;;;17.97;67.68
49178;BME280;35016;55.674;37.468;2023-08-17T01:43:18;99842.47;;;17.95;68.01
49178;BME280;35016;55.674;37.468;2023-08-17T01:45:47;99839.72;;;17.95;68.14
49178;BME280;35016;55.674;37.468;2023-08-17T01:48:14;99841.13;;;17.93;68.28
49178;BME280;35016;55.674;37.468;2023-08-17T01:50:41;99842.22;;;17.92;68.46
49178;BME280;35016;55.674;37.468;2023-08-17T01:53:08;99842.22;;;17.92;68.41
49178;BME280;35016;55.674;37.468;2023-08-17T01:55:36;99846.91;;;17.91;68.69
49178;BME280;35016;55.674;37.468;2023-08-17T01:58:06;99845.34;;;17.85;69.07
49178;BME280;35016;55.674;37.468;2023-08-17T02:00:33;99849.44;;;17.88;68.76
49178;BME280;35016;55.674;37.468;2023-08-17T02:03:00;99854.41;;;17.86;68.89
49178;BME280;35016;55.674;37.468;2023-08-17T02:05:27;99846.78;;;17.83;68.73
49178;BME280;35016;55.674;37.468;2023-08-17T02:07:55;99853.38;;;17.82;69.26
49178;BME280;35016;55.674;37.468;2023-08-17T02:10:22;99852.56;;;17.81;69.13
49178;BME280;35016;55.674;37.468;2023-08-17T02:12:50;99846.56;;;17.79;69.42
49178;BME280;35016;55.674;37.468;2023-08-17T02:15:24;99849.31;;;17.79;69.30
49178;BME280;35016;55.674;37.468;2023-08-17T02:17:51;99843.00;;;17.79;69.33
49178;BME280;35016;55.674;37.468;2023-08-17T02:20:19;99849.81;;;17.81;69.55
49178;BME280;35016;55.674;37.468;2023-08-17T02:22:46;99844.84;;;17.83;69.53
49178;BME280;35016;55.674;37.468;2023-08-17T02:25:13;99848.91;;;17.86;69.49
49178;BME280;35016;55.674;37.468;2023-08-17T02:27:40;99850.25;;;17.88;69.64
49178;BME280;35016;55.674;37.468;2023-08-17T02:30:08;99852.94;;;17.93;69.57
49178;BME280;35016;55.674;37.468;2023-08-17T02:32:35;99850.41;;;17.97;69.69
49178;BME280;35016;55.674;37.468;2023-08-17T02:35:02;99856.09;;;18.01;69.54
49178;BME280;35016;55.674;37.468;2023-08-17T02:37:29;99850.00;;;18.04;69.46
49178;BME280;35016;55.674;37.468;2023-08-17T02:39:57;99856.00;;;18.06;69.40
49178;BME280;35016;55.674;37.468;2023-08-17T02:42:24;99851.84;;;18.08;69.31
49178;BME280;35016;55.674;37.468;2023-08-17T02:44:53;99850.94;;;18.13;69.40
49178;BME280;35016;55.674;37.468;2023-08-17T02:47:20;99861.31;;;18.16;69.21
49178;BME280;35016;55.674;37.468;2023-08-17T02:49:47;99857.44;;;18.17;69.27
49178;BME280;35016;55.674;37.468;2023-08-17T02:52:16;99857.97;;;18.19;69.21
49178;BME280;35016;55.674;37.468;2023-08-17T02:54:43;99860.13;;;18.22;69.19
49178;BME280;35016;55.674;37.468;2023-08-17T02:57:10;99861.16;;;18.26;69.11
49178;BME280;35016;55.674;37.468;2023-08-17T02:59:37;99855.06;;;18.29;69.04
49178;BME280;35016;55.674;37.468;2023-08-17T03:02:05;99858.84;;;18.33;68.90
49178;BME280;35016;55.674;37.468;2023-08-17T03:04:34;99861.78;;;18.37;68.93
49178;BME280;35016;55.674;37.468;2023-08-17T03:07:01;99858.44;;;18.40;68.88
49178;BME280;35016;55.674;37.468;2023-08-17T03:09:28;99862.72;;;18.46;68.66
49178;BME280;35016;55.674;37.468;2023-08-17T03:11:55;99867.81;;;18.52;68.66
49178;BME280;35016;55.674;37.468;2023-08-17T03:14:22;99866.09;;;18.56;68.62
49178;BME280;35016;55.674;37.468;2023-08-17T03:16:49;99863.25;;;18.62;68.44
49178;BME280;35016;55.674;37.468;2023-08-17T03:19:17;99860.75;;;18.65;68.34
49178;BME280;35016;55.674;37.468;2023-08-17T03:21:44;99857.88;;;18.70;68.23
49178;BME280;35016;55.674;37.468;2023-08-17T03:24:11;99859.72;;;18.75;68.10
49178;BME280;35016;55.674;37.468;2023-08-17T03:26:38;99864.84;;;18.81;68.03
49178;BME280;35016;55.674;37.468;2023-08-17T03:29:07;99855.97;;;18.84;67.85
49178;BME280;35016;55.674;37.468;2023-08-17T03:31:36;99865.44;;;18.92;67.85
49178;BME280;35016;55.674;37.468;2023-08-17T03:34:06;99868.06;;;18.97;67.70
49178;BME280;35016;55.674;37.468;2023-08-17T03:36:33;99861.66;;;19.02;67.72
49178;BME280;35016;55.674;37.468;2023-08-17T03:39:00;99856.03;;;19.07;67.46
49178;BME280;35016;55.674;37.468;2023-08-17T03:41:30;99854.22;;;19.02;67.34
49178;BME280;35016;55.674;37.468;2023-08-17T03:44:03;99866.84;;;19.17;67.20
49178;BME280;35016;55.674;37.468;2023-08-17T03:46:33;99867.56;;;19.23;67.09
49178;BME280;35016;55.674;37.468;2023-08-17T03:49:00;99860.31;;;19.27;67.04
49178;BME280;35016;55.674;37.468;2023-08-17T03:51:28;99857.94;;;19.34;67.08
49178;BME280;35016;55.674;37.468;2023-08-17T03:53:55;99859.50;;;19.40;66.99
49178;BME280;35016;55.674;37.468;2023-08-17T03:56:22;99863.56;;;19.42;66.92
49178;BME280;35016;55.674;37.468;2023-08-17T03:58:50;99862.31;;;19.48;66.67
49178;BME280;35016;55.674;37.468;2023-08-17T04:01:17;99869.34;;;19.55;66.68
49178;BME280;35016;55.674;37.468;2023-08-17T04:03:44;99867.28;;;19.60;66.54
49178;BME280;35016;55.674;37.468;2023-08-17T04:06:12;99867.16;;;19.65;66.46
49178;BME280;35016;55.674;37.468;2023-08-17T04:08:39;99865.13;;;19.71;66.36
49178;BME280;35016;55.674;37.468;2023-08-17T04:11:06;99868.28;;;19.78;66.21
49178;BME280;35016;55.674;37.468;2023-08-17T04:13:33;99866.19;;;19.84;66.13
49178;BME280;35016;55.674;37.468;2023-08-17T04:16:01;99863.81;;;19.91;66.02
49178;BME280;35016;55.674;37.468;2023-08-17T04:18:28;99869.41;;;19.99;65.98
49178;BME280;35016;55.674;37.468;2023-08-17T04:20:54;99869.97;;;20.10;65.70
49178;BME280;35016;55.674;37.468;2023-08-17T04:23:22;99870.34;;;20.17;65.47
49178;BME280;35016;55.674;37.468;2023-08-17T04:25:49;99872.34;;;20.25;65.42
49178;BME280;35016;55.674;37.468;2023-08-17T04:28:16;99874.66;;;20.32;65.22
49178;BME280;35016;55.674;37.468;2023-08-17T04:30:44;99880.25;;;20.40;65.17
49178;BME280;35016;55.674;37.468;2023-08-17T04:33:11;99875.91;;;20.48;64.99
49178;BME280;35016;55.674;37.468;2023-08-17T04:35:39;99866.06;;;20.56;64.91
49178;BME280;35016;55.674;37.468;2023-08-17T04:38:06;99872.44;;;20.65;64.61
49178;BME280;35016;55.674;37.468;2023-08-17T04:40:34;99870.03;;;20.72;64.41
49178;BME280;35016;55.674;37.468;2023-08-17T04:43:02;99880.78;;;20.82;63.91
49178;BME280;35016;55.674;37.468;2023-08-17T04:45:29;99878.06;;;20.91;63.78
49178;BME280;35016;55.674;37.468;2023-08-17T04:47:56;99881.97;;;20.98;63.62
49178;BME280;35016;55.674;37.468;2023-08-17T04:50:24;99873.22;;;21.05;63.51
49178;BME280;35016;55.674;37.468;2023-08-17T04:52:52;99881.22;;;21.15;63.36
49178;BME280;35016;55.674;37.468;2023-08-17T04:55:20;99884.31;;;21.22;63.22
49178;BME280;35016;55.674;37.468;2023-08-17T04:57:47;99880.78;;;21.30;62.95
49178;BME280;35016;55.674;37.468;2023-08-17T05:00:16;99875.59;;;21.38;62.82
49178;BME280;35016;55.674;37.468;2023-08-17T05:02:43;99884.41;;;21.48;62.44
49178;BME280;35016;55.674;37.468;2023-08-17T05:05:10;99878.41;;;21.55;61.77
49178;BME280;35016;55.674;37.468;2023-08-17T05:07:39;99888.31;;;21.64;61.57
49178;BME280;35016;55.674;37.468;2023-08-17T05:10:06;99881.19;;;21.72;61.06
49178;BME280;35016;55.674;37.468;2023-08-17T05:12:36;99889.47;;;21.81;60.47
49178;BME280;35016;55.674;37.468;2023-08-17T05:15:04;99884.59;;;21.86;60.13
49178;BME280;35016;55.674;37.468;2023-08-17T05:17:31;99886.53;;;21.94;59.40
49178;BME280;35016;55.674;37.468;2023-08-17T05:19:58;99874.19;;;22.01;59.25
49178;BME280;35016;55.674;37.468;2023-08-17T05:22:27;99878.44;;;22.07;58.81
49178;BME280;35016;55.674;37.468;2023-08-17T05:24:54;99883.63;;;22.17;58.63
49178;BME280;35016;55.674;37.468;2023-08-17T05:27:21;99881.97;;;22.24;58.34
49178;BME280;35016;55.674;37.468;2023-08-17T05:29:49;99887.03;;;22.31;57.86
49178;BME280;35016;55.674;37.468;2023-08-17T05:32:17;99887.50;;;22.42;57.83
49178;BME280;35016;55.674;37.468;2023-08-17T05:34:47;99881.78;;;22.47;57.83
49178;BME280;35016;55.674;37.468;2023-08-17T05:37:14;99894.47;;;22.56;57.65
49178;BME280;35016;55.674;37.468;2023-08-17T05:39:42;99880.63;;;22.56;57.40
49178;BME280;35016;55.674;37.468;2023-08-17T05:42:09;99889.22;;;22.64;57.53
49178;BME280;35016;55.674;37.468;2023-08-17T05:44:36;99888.03;;;22.73;57.08
49178;BME280;35016;55.674;37.468;2023-08-17T05:47:03;99873.22;;;22.78;56.83
49178;BME280;35016;55.674;37.468;2023-08-17T05:49:30;99879.75;;;22.82;56.74
49178;BME280;35016;55.674;37.468;2023-08-17T05:51:57;99880.72;;;22.86;56.37
49178;BME280;35016;55.674;37.468;2023-08-17T05:54:24;99878.09;;;22.90;56.33
49178;BME280;35016;55.674;37.468;2023-08-17T05:56:51;99880.19;;;22.93;56.13
49178;BME280;35016;55.674;37.468;2023-08-17T05:59:18;99879.66;;;22.99;55.93
49178;BME280;35016;55.674;37.468;2023-08-17T06:01:45;99877.06;;;23.03;55.61
49178;BME280;35016;55.674;37.468;2023-08-17T06:04:13;99877.19;;;23.06;55.29
49178;BME280;35016;55.674;37.468;2023-08-17T06:06:40;99880.75;;;23.15;55.14
49178;BME280;35016;55.674;37.468;2023-08-17T06:09:07;99878.94;;;23.20;54.86
49178;BME280;35016;55.674;37.468;2023-08-17T06:11:35;99882.78;;;23.27;54.60
49178;BME280;35016;55.674;37.468;2023-08-17T06:14:02;99877.38;;;23.31;54.27
49178;BME280;35016;55.674;37.468;2023-08-17T06:16:29;99880.75;;;23.36;53.84
49178;BME280;35016;55.674;37.468;2023-08-17T06:18:56;99879.97;;;23.36;53.56
49178;BME280;35016;55.674;37.468;2023-08-17T06:21:24;99879.63;;;23.37;53.42
49178;BME280;35016;55.674;37.468;2023-08-17T06:23:51;99875.88;;;23.42;53.27
49178;BME280;35016;55.674;37.468;2023-08-17T06:26:17;99881.06;;;23.43;53.05
49178;BME280;35016;55.674;37.468;2023-08-17T06:28:45;99873.72;;;23.47;52.79
49178;BME280;35016;55.674;37.468;2023-08-17T06:31:14;99879.03;;;23.53;52.75
49178;BME280;35016;55.674;37.468;2023-08-17T06:33:41;99867.47;;;23.59;52.58
49178;BME280;35016;55.674;37.468;2023-08-17T06:36:09;99873.59;;;23.65;52.52
49178;BME280;35016;55.674;37.468;2023-08-17T06:38:39;99869.81;;;23.69;52.15
49178;BME280;35016;55.674;37.468;2023-08-17T06:41:06;99870.31;;;23.71;51.81
49178;BME280;35016;55.674;37.468;2023-08-17T06:43:33;99864.94;;;23.66;51.76
49178;BME280;35016;55.674;37.468;2023-08-17T06:46:01;99873.88;;;23.72;51.71
49178;BME280;35016;55.674;37.468;2023-08-17T06:48:31;99876.44;;;23.77;51.63
49178;BME280;35016;55.674;37.468;2023-08-17T06:50:59;99873.47;;;23.82;51.64
49178;BME280;35016;55.674;37.468;2023-08-17T06:53:26;99877.31;;;23.90;51.33
49178;BME280;35016;55.674;37.468;2023-08-17T06:55:53;99874.00;;;23.96;51.30
49178;BME280;35016;55.674;37.468;2023-08-17T06:58:20;99868.25;;;24.01;51.08
49178;BME280;35016;55.674;37.468;2023-08-17T07:00:47;99877.97;;;24.07;51.05
49178;BME280;35016;55.674;37.468;2023-08-17T07:03:15;99860.22;;;24.08;50.93
49178;BME280;35016;55.674;37.468;2023-08-17T07:05:43;99868.66;;;24.12;50.81
49178;BME280;35016;55.674;37.468;2023-08-17T07:08:10;99870.59;;;24.12;50.65
49178;BME280;35016;55.674;37.468;2023-08-17T07:10:37;99873.38;;;24.12;50.78
49178;BME280;35016;55.674;37.468;2023-08-17T07:13:04;99868.31;;;24.14;50.81
49178;BME280;35016;55.674;37.468;2023-08-17T07:15:32;99867.63;;;24.17;50.62
49178;BME280;35016;55.674;37.468;2023-08-17T07:17:59;99878.81;;;24.20;50.60
49178;BME280;35016;55.674;37.468;2023-08-17T07:20:26;99866.13;;;24.19;50.41
49178;BME280;35016;55.674;37.468;2023-08-17T07:22:53;99873.41;;;24.24;50.55
49178;BME280;35016;55.674;37.468;2023-08-17T07:25:20;99880.53;;;24.33;50.04
49178;BME280;35016;55.674;37.468;2023-08-17T07:27:47;99875.59;;;24.39;50.05
49178;BME280;35016;55.674;37.468;2023-08-17T07:30:14;99865.06;;;24.45;49.72
49178;BME280;35016;55.674;37.468;2023-08-17T07:32:41;99867.63;;;24.50;49.89
49178;BME280;35016;55.674;37.468;2023-08-17T07:35:08;99864.97;;;24.53;49.71
49178;BME280;35016;55.674;37.468;2023-08-17T07:37:36;99866.59;;;24.54;49.62
49178;BME280;35016;55.674;37.468;2023-08-17T07:40:03;99864.78;;;24.58;49.79
49178;BME280;35016;55.674;37.468;2023-08-17T07:42:31;99866.41;;;24.59;49.54
49178;BME280;35016;55.674;37.468;2023-08-17T07:44:58;99864.53;;;24.63;49.29
49178;BME280;35016;55.674;37.468;2023-08-17T07:47:25;99865.81;;;24.66;49.06
49178;BME280;35016;55.674;37.468;2023-08-17T07:49:53;99867.44;;;24.67;48.70
49178;BME280;35016;55.674;37.468;2023-08-17T07:52:20;99862.81;;;24.71;48.50
49178;BME280;35016;55.674;37.468;2023-08-17T07:54:47;99865.72;;;24.75;48.17
49178;BME280;35016;55.674;37.468;2023-08-17T07:57:15;99865.00;;;24.78;48.07
49178;BME280;35016;55.674;37.468;2023-08-17T07:59:42;99856.81;;;24.81;47.41
49178;BME280;35016;55.674;37.468;2023-08-17T08:02:09;99864.44;;;24.84;47.41
49178;BME280;35016;55.674;37.468;2023-08-17T08:04:36;99857.06;;;24.88;47.36
49178;BME280;35016;55.674;37.468;2023-08-17T08:07:03;99860.06;;;24.95;46.96
49178;BME280;35016;55.674;37.468;2023-08-17T08:09:30;99854.66;;;24.99;46.81
49178;BME280;35016;55.674;37.468;2023-08-17T08:11:57;99863.31;;;25.10;46.75
49178;BME280;35016;55.674;37.468;2023-08-17T08:14:24;99858.69;;;25.14;46.30
49178;BME280;35016;55.674;37.468;2023-08-17T08:16:52;99864.84;;;25.19;46.07
49178;BME280;35016;55.674;37.468;2023-08-17T08:19:19;99855.00;;;25.22;46.01
49178;BME280;35016;55.674;37.468;2023-08-17T08:21:46;99855.56;;;25.27;46.07
49178;BME280;35016;55.674;37.468;2023-08-17T08:24:13;99864.00;;;25.31;45.91
49178;BME280;35016;55.674;37.468;2023-08-17T08:26:56;99856.94;;;25.33;45.50
49178;BME280;35016;55.674;37.468;2023-08-17T08:29:23;99851.38;;;25.33;45.31
49178;BME280;35016;55.674;37.468;2023-08-17T08:31:50;99844.69;;;25.35;45.28
49178;BME280;35016;55.674;37.468;2023-08-17T08:34:17;99842.13;;;25.42;45.32
49178;BME280;35016;55.674;37.468;2023-08-17T08:36:44;99846.63;;;25.46;44.97
49178;BME280;35016;55.674;37.468;2023-08-17T08:39:11;99849.16;;;25.51;44.65
49178;BME280;35016;55.674;37.468;2023-08-17T08:41:40;99848.47;;;25.54;44.24
49178;BME280;35016;55.674;37.468;2023-08-17T08:44:07;99844.63;;;25.59;44.24
49178;BME280;35016;55.674;37.468;2023-08-17T08:46:36;99838.72;;;25.60;44.23
49178;BME280;35016;55.674;37.468;2023-08-17T08:49:10;99848.09;;;25.68;44.03
49178;BME280;35016;55.674;37.468;2023-08-17T08:51:43;99840.34;;;25.74;43.80
49178;BME280;35016;55.674;37.468;2023-08-17T08:54:25;99841.81;;;25.83;43.63
49178;BME280;35016;55.674;37.468;2023-08-17T08:56:59;99841.75;;;25.96;43.84
49178;BME280;35016;55.674;37.468;2023-08-17T08:59:28;99839.66;;;26.05;43.84
49178;BME280;35016;55.674;37.468;2023-08-17T09:01:57;99839.13;;;26.15;43.45
49178;BME280;35016;55.674;37.468;2023-08-17T09:04:25;99828.09;;;26.18;43.16
49178;BME280;35016;55.674;37.468;2023-08-17T09:06:53;99836.78;;;26.17;43.17
49178;BME280;35016;55.674;37.468;2023-08-17T09:09:21;99830.97;;;26.22;42.97
49178;BME280;35016;55.674;37.468;2023-08-17T09:11:55;99827.13;;;26.27;42.85
49178;BME280;35016;55.674;37.468;2023-08-17T09:14:22;99822.00;;;26.29;42.72
49178;BME280;35016;55.674;37.468;2023-08-17T09:16:49;99829.66;;;26.32;42.68
49178;BME280;35016;55.674;37.468;2023-08-17T09:19:16;99822.25;;;26.36;42.70
49178;BME280;35016;55.674;37.468;2023-08-17T09:21:44;99818.47;;;26.44;42.82
49178;BME280;35016;55.674;37.468;2023-08-17T09:24:16;99817.50;;;26.52;42.42
49178;BME280;35016;55.674;37.468;2023-08-17T09:26:43;99822.91;;;26.61;42.46
49178;BME280;35016;55.674;37.468;2023-08-17T09:29:19;99821.44;;;26.67;41.80
49178;BME280;35016;55.674;37.468;2023-08-17T09:31:47;99822.34;;;26.71;42.10
49178;BME280;35016;55.674;37.468;2023-08-17T09:34:14;99825.13;;;26.71;41.77
49178;BME280;35016;55.674;37.468;2023-08-17T09:36:45;99824.31;;;26.70;41.43
49178;BME280;35016;55.674;37.468;2023-08-17T09:39:12;99827.09;;;26.70;41.60
49178;BME280;35016;55.674;37.468;2023-08-17T09:41:41;99823.59;;;26.73;41.47
49178;BME280;35016;55.674;37.468;2023-08-17T09:44:11;99826.56;;;26.80;41.37
49178;BME280;35016;55.674;37.468;2023-08-17T09:46:38;99814.69;;;26.83;41.32
49178;BME280;35016;55.674;37.468;2023-08-17T09:49:06;99821.16;;;26.88;40.98
49178;BME280;35016;55.674;37.468;2023-08-17T09:51:33;99822.44;;;26.90;41.43
49178;BME280;35016;55.674;37.468;2023-08-17T09:54:00;99820.53;;;26.94;41.03
49178;BME280;35016;55.674;37.468;2023-08-17T09:56:30;99818.66;;;26.98;41.11
49178;BME280;35016;55.674;37.468;2023-08-17T09:58:58;99818.84;;;27.05;41.01
49178;BME280;35016;55.674;37.468;2023-08-17T10:01:27;99823.47;;;27.17;41.00
49178;BME280;35016;55.674;37.468;2023-08-17T10:03:57;99824.53;;;27.28;40.92
49178;BME280;35016;55.674;37.468;2023-08-17T10:06:26;99815.16;;;27.36;40.61
49178;BME280;35016;55.674;37.468;2023-08-17T10:08:57;99820.81;;;27.40;40.35
49178;BME280;35016;55.674;37.468;2023-08-17T10:11:31;99815.06;;;27.49;39.96
49178;BME280;35016;55.674;37.468;2023-08-17T10:14:02;99811.16;;;27.53;40.35
49178;BME280;35016;55.674;37.468;2023-08-17T10:17:03;99803.06;;;27.64;40.06
49178;BME280;35016;55.674;37.468;2023-08-17T10:19:48;99805.84;;;27.64;39.89
49178;BME280;35016;55.674;37.468;2023-08-17T10:22:27;99809.50;;;27.68;40.00
49178;BME280;35016;55.674;37.468;2023-08-17T10:25:03;99804.06;;;27.75;39.89
49178;BME280;35016;55.674;37.468;2023-08-17T10:27:34;99811.72;;;27.78;39.98
49178;BME280;35016;55.674;37.468;2023-08-17T10:30:02;99816.13;;;27.79;40.15
49178;BME280;35016;55.674;37.468;2023-08-17T10:32:35;99806.50;;;27.76;39.98
49178;BME280;35016;55.674;37.468;2023-08-17T10:35:03;99804.97;;;27.79;39.64
49178;BME280;35016;55.674;37.468;2023-08-17T10:37:31;99797.41;;;27.80;39.78
49178;BME280;35016;55.674;37.468;2023-08-17T10:39:59;99795.81;;;27.79;39.45
49178;BME280;35016;55.674;37.468;2023-08-17T10:42:34;99797.41;;;27.80;39.01
49178;BME280;35016;55.674;37.468;2023-08-17T10:47:49;99801.66;;;27.93;39.11
49178;BME280;35016;55.674;37.468;2023-08-17T10:50:23;99799.66;;;27.93;38.63
49178;BME280;35016;55.674;37.468;2023-08-17T10:52:52;99796.31;;;27.84;38.75
49178;BME280;35016;55.674;37.468;2023-08-17T10:55:41;99806.28;;;27.85;38.73
49178;BME280;35016;55.674;37.468;2023-08-17T10:58:08;99805.34;;;27.77;38.83
49178;BME280;35016;55.674;37.468;2023-08-17T11:00:41;99804.59;;;27.81;39.20
49178;BME280;35016;55.674;37.468;2023-08-17T11:03:19;99796.88;;;27.74;38.69
49178;BME280;35016;55.674;37.468;2023-08-17T11:05:49;99789.78;;;27.76;38.75
49178;BME280;35016;55.674;37.468;2023-08-17T11:11:05;99777.16;;;27.83;38.30
49178;BME280;35016;55.674;37.468;2023-08-17T11:13:35;99774.00;;;27.84;38.58
49178;BME280;35016;55.674;37.468;2023-08-17T11:16:05;99781.56;;;27.84;38.32
49178;BME280;35016;55.674;37.468;2023-08-17T11:18:33;99777.16;;;27.83;38.21
49178;BME280;35016;55.674;37.468;2023-08-17T11:21:02;99771.53;;;27.79;38.07
49178;BME280;35016;55.674;37.468;2023-08-17T11:23:34;99772.69;;;27.78;38.08
49178;BME280;35016;55.674;37.468;2023-08-17T11:26:02;99767.13;;;27.78;38.02
49178;BME280;35016;55.674;37.468;2023-08-17T11:28:30;99776.66;;;27.77;38.07
49178;BME280;35016;55.674;37.468;2023-08-17T11:31:13;99769.16;;;27.81;37.67
49178;BME280;35016;55.674;37.468;2023-08-17T11:33:41;99761.81;;;27.92;37.80
49178;BME280;35016;55.674;37.468;2023-08-17T11:36:11;99758.72;;;27.97;37.85
49178;BME280;35016;55.674;37.468;2023-08-17T11:38:42;99758.28;;;27.95;37.44
49178;BME280;35016;55.674;37.468;2023-08-17T11:41:11;99751.16;;;27.98;37.62
49178;BME280;35016;55.674;37.468;2023-08-17T11:43:42;99756.06;;;28.04;37.56
49178;BME280;35016;55.674;37.468;2023-08-17T11:46:09;99752.56;;;28.07;37.55
49178;BME280;35016;55.674;37.468;2023-08-17T11:48:37;99754.66;;;28.14;37.34
49178;BME280;35016;55.674;37.468;2023-08-17T11:51:04;99747.66;;;28.24;37.22
49178;BME280;35016;55.674;37.468;2023-08-17T11:53:37;99743.31;;;28.49;36.43
49178;BME280;35016;55.674;37.468;2023-08-17T11:56:08;99747.38;;;28.78;36.17
49178;BME280;35016;55.674;37.468;2023-08-17T11:58:45;99744.78;;;29.19;35.78
49178;BME280;35016;55.674;37.468;2023-08-17T12:01:13;99743.34;;;29.58;35.57
49178;BME280;35016;55.674;37.468;2023-08-17T12:03:43;99737.53;;;30.08;35.22
49178;BME280;35016;55.674;37.468;2023-08-17T12:06:11;99741.53;;;30.55;34.46
49178;BME280;35016;55.674;37.468;2023-08-17T12:08:46;99742.66;;;30.98;33.45
49178;BME280;35016;55.674;37.468;2023-08-17T12:11:17;99734.16;;;31.53;33.29
49178;BME280;35016;55.674;37.468;2023-08-17T12:13:49;99736.34;;;32.23;32.83
49178;BME280;35016;55.674;37.468;2023-08-17T12:16:21;99743.56;;;33.06;32.70
49178;BME280;35016;55.674;37.468;2023-08-17T12:18:50;99737.22;;;33.82;32.07
49178;BME280;35016;55.674;37.468;2023-08-17T12:21:20;99738.44;;;34.47;30.24
49178;BME280;35016;55.674;37.468;2023-08-17T12:23:48;99727.06;;;35.03;30.31
49178;BME280;35016;55.674;37.468;2023-08-17T12:26:22;99726.47;;;35.53;28.62
49178;BME280;35016;55.674;37.468;2023-08-17T12:28:50;99729.28;;;35.87;29.12
49178;BME280;35016;55.674;37.468;2023-08-17T12:31:22;99737.44;;;36.35;26.58
49178;BME280;35016;55.674;37.468;2023-08-17T12:33:50;99732.19;;;36.84;26.92
49178;BME280;35016;55.674;37.468;2023-08-17T12:36:17;99726.38;;;37.34;26.31
49178;BME280;35016;55.674;37.468;2023-08-17T12:38:46;99724.22;;;37.78;25.89
49178;BME280;35016;55.674;37.468;2023-08-17T12:41:16;99719.72;;;38.33;25.33
49178;BME280;35016;55.674;37.468;2023-08-17T12:43:44;99713.50;;;38.99;24.75
49178;BME280;35016;55.674;37.468;2023-08-17T12:46:11;99714.41;;;39.54;23.83
49178;BME280;35016;55.674;37.468;2023-08-17T12:48:38;99723.84;;;39.89;23.40
49178;BME280;35016;55.674;37.468;2023-08-17T12:51:05;99711.59;;;40.31;23.36
49178;BME280;35016;55.674;37.468;2023-08-17T12:53:32;99719.94;;;40.72;22.59
49178;BME280;35016;55.674;37.468;2023-08-17T12:55:59;99711.72;;;40.87;22.19
49178;BME280;35016;55.674;37.468;2023-08-17T12:58:27;99720.47;;;40.93;22.29
49178;BME280;35016;55.674;37.468;2023-08-17T13:00:54;99716.84;;;40.79;21.55
49178;BME280;35016;55.674;37.468;2023-08-17T13:03:21;99715.75;;;40.64;21.95
49178;BME280;35016;55.674;37.468;2023-08-17T13:05:49;99707.16;;;40.42;21.50